sensor_id;sensor_type;location;lat;lon;timestamp;P1;durP1;ratioP1;P2;durP2;ratioP2
42132;SDS011;70517;48.192;16.278;2023-07-08T00:02:24;1.85;;;1.50;;
42132;SDS011;70517;48.192;16.278;2023-07-08T00:05:24;1.90;;;1.63;;
42132;SDS011;70517;48.192;16.278;2023-07-08T00:08:25;2.53;;;1.70;;
42132;SDS011;70517;48.192;16.278;2023-07-08T00:11:25;2.83;;;1.50;;
42132;SDS011;70517;48.192;16.278;2023-07-08T00:14:26;2.28;;;1.70;;
42132;SDS011;70517;48.192;16.278;2023-07-08T00:17:26;2.00;;;1.70;;
42132;SDS011;70517;48.192;16.278;2023-07-08T00:20:35;1.70;;;1.60;;
42132;SDS011;70517;48.192;16.278;2023-07-08T00:23:36;1.45;;;1.35;;
42132;SDS011;70517;48.192;16.278;2023-07-08T00:26:37;1.60;;;1.43;;
42132;SDS011;70517;48.192;16.278;2023-07-08T00:29:37;2.05;;;1.50;;
42132;SDS011;70517;48.192;16.278;2023-07-08T00:32:38;4.07;;;1.83;;
42132;SDS011;70517;48.192;16.278;2023-07-08T00:35:42;2.42;;;1.70;;
42132;SDS011;70517;48.192;16.278;2023-07-08T00:38:43;1.67;;;1.52;;
42132;SDS011;70517;48.192;16.278;2023-07-08T00:41:45;3.88;;;1.52;;
42132;SDS011;70517;48.192;16.278;2023-07-08T00:44:45;3.38;;;1.77;;
42132;SDS011;70517;48.192;16.278;2023-07-08T00:47:46;1.98;;;1.58;;
42132;SDS011;70517;48.192;16.278;2023-07-08T00:50:46;3.60;;;1.80;;
42132;SDS011;70517;48.192;16.278;2023-07-08T00:53:47;1.80;;;1.40;;
42132;SDS011;70517;48.192;16.278;2023-07-08T00:56:55;3.63;;;1.67;;
42132;SDS011;70517;48.192;16.278;2023-07-08T01:00:02;2.85;;;1.73;;
42132;SDS011;70517;48.192;16.278;2023-07-08T01:03:03;2.58;;;1.50;;
42132;SDS011;70517;48.192;16.278;2023-07-08T01:06:04;1.70;;;1.33;;
42132;SDS011;70517;48.192;16.278;2023-07-08T01:09:05;1.58;;;1.33;;
42132;SDS011;70517;48.192;16.278;2023-07-08T01:12:08;2.53;;;1.70;;
42132;SDS011;70517;48.192;16.278;2023-07-08T01:15:09;2.53;;;1.50;;
42132;SDS011;70517;48.192;16.278;2023-07-08T01:18:09;1.85;;;1.73;;
42132;SDS011;70517;48.192;16.278;2023-07-08T01:21:31;2.45;;;1.63;;
42132;SDS011;70517;48.192;16.278;2023-07-08T01:24:36;2.47;;;1.60;;
42132;SDS011;70517;48.192;16.278;2023-07-08T01:27:39;2.20;;;1.65;;
42132;SDS011;70517;48.192;16.278;2023-07-08T01:30:41;2.80;;;1.63;;
42132;SDS011;70517;48.192;16.278;2023-07-08T01:33:42;1.67;;;1.55;;
42132;SDS011;70517;48.192;16.278;2023-07-08T01:36:52;2.33;;;1.53;;
42132;SDS011;70517;48.192;16.278;2023-07-08T01:39:53;2.73;;;1.50;;
42132;SDS011;70517;48.192;16.278;2023-07-08T01:42:53;2.40;;;1.43;;
42132;SDS011;70517;48.192;16.278;2023-07-08T01:45:53;2.97;;;1.50;;
42132;SDS011;70517;48.192;16.278;2023-07-08T01:48:54;1.85;;;1.65;;
42132;SDS011;70517;48.192;16.278;2023-07-08T01:51:54;1.80;;;1.38;;
42132;SDS011;70517;48.192;16.278;2023-07-08T01:54:55;2.72;;;1.73;;
42132;SDS011;70517;48.192;16.278;2023-07-08T01:57:55;1.63;;;1.50;;
42132;SDS011;70517;48.192;16.278;2023-07-08T02:00:56;1.60;;;1.40;;
42132;SDS011;70517;48.192;16.278;2023-07-08T02:03:56;1.93;;;1.50;;
42132;SDS011;70517;48.192;16.278;2023-07-08T02:06:57;1.77;;;1.30;;
42132;SDS011;70517;48.192;16.278;2023-07-08T02:09:58;2.70;;;1.48;;
42132;SDS011;70517;48.192;16.278;2023-07-08T02:12:58;1.77;;;1.67;;
42132;SDS011;70517;48.192;16.278;2023-07-08T02:15:59;1.73;;;1.40;;
42132;SDS011;70517;48.192;16.278;2023-07-08T02:18:59;3.88;;;1.60;;
42132;SDS011;70517;48.192;16.278;2023-07-08T02:21:59;2.20;;;1.40;;
42132;SDS011;70517;48.192;16.278;2023-07-08T02:25:00;2.72;;;1.58;;
42132;SDS011;70517;48.192;16.278;2023-07-08T02:28:00;2.07;;;1.37;;
42132;SDS011;70517;48.192;16.278;2023-07-08T02:31:03;1.87;;;1.40;;
42132;SDS011;70517;48.192;16.278;2023-07-08T02:34:03;1.95;;;1.63;;
42132;SDS011;70517;48.192;16.278;2023-07-08T02:37:04;2.53;;;1.63;;
42132;SDS011;70517;48.192;16.278;2023-07-08T02:40:04;1.83;;;1.37;;
42132;SDS011;70517;48.192;16.278;2023-07-08T02:43:04;1.85;;;1.58;;
42132;SDS011;70517;48.192;16.278;2023-07-08T02:46:05;2.93;;;1.47;;
42132;SDS011;70517;48.192;16.278;2023-07-08T02:49:05;3.20;;;1.60;;
42132;SDS011;70517;48.192;16.278;2023-07-08T02:52:05;2.20;;;1.43;;
42132;SDS011;70517;48.192;16.278;2023-07-08T02:55:06;2.17;;;1.50;;
42132;SDS011;70517;48.192;16.278;2023-07-08T02:58:06;1.90;;;1.50;;
42132;SDS011;70517;48.192;16.278;2023-07-08T03:01:07;2.63;;;1.50;;
42132;SDS011;70517;48.192;16.278;2023-07-08T03:04:09;3.30;;;1.90;;
42132;SDS011;70517;48.192;16.278;2023-07-08T03:07:13;3.17;;;1.63;;
42132;SDS011;70517;48.192;16.278;2023-07-08T03:10:13;1.63;;;1.48;;
42132;SDS011;70517;48.192;16.278;2023-07-08T03:13:14;2.27;;;1.30;;
42132;SDS011;70517;48.192;16.278;2023-07-08T03:16:14;2.57;;;1.73;;
42132;SDS011;70517;48.192;16.278;2023-07-08T03:19:14;1.60;;;1.40;;
42132;SDS011;70517;48.192;16.278;2023-07-08T03:22:15;2.67;;;1.45;;
42132;SDS011;70517;48.192;16.278;2023-07-08T03:25:15;2.20;;;1.70;;
42132;SDS011;70517;48.192;16.278;2023-07-08T03:28:15;1.47;;;1.37;;
42132;SDS011;70517;48.192;16.278;2023-07-08T03:31:16;1.98;;;1.52;;
42132;SDS011;70517;48.192;16.278;2023-07-08T03:34:17;3.47;;;1.73;;
42132;SDS011;70517;48.192;16.278;2023-07-08T03:37:17;2.08;;;1.58;;
42132;SDS011;70517;48.192;16.278;2023-07-08T03:40:17;1.80;;;1.57;;
42132;SDS011;70517;48.192;16.278;2023-07-08T03:43:18;4.20;;;1.80;;
42132;SDS011;70517;48.192;16.278;2023-07-08T03:46:19;2.43;;;1.37;;
42132;SDS011;70517;48.192;16.278;2023-07-08T03:49:20;2.70;;;1.60;;
42132;SDS011;70517;48.192;16.278;2023-07-08T03:52:23;3.38;;;1.70;;
42132;SDS011;70517;48.192;16.278;2023-07-08T03:55:23;2.33;;;1.80;;
42132;SDS011;70517;48.192;16.278;2023-07-08T03:58:23;2.17;;;1.57;;
42132;SDS011;70517;48.192;16.278;2023-07-08T04:01:24;1.53;;;1.30;;
42132;SDS011;70517;48.192;16.278;2023-07-08T04:04:25;2.17;;;1.40;;
42132;SDS011;70517;48.192;16.278;2023-07-08T04:07:25;1.60;;;1.30;;
42132;SDS011;70517;48.192;16.278;2023-07-08T04:10:25;3.30;;;1.43;;
42132;SDS011;70517;48.192;16.278;2023-07-08T04:13:25;3.00;;;1.70;;
42132;SDS011;70517;48.192;16.278;2023-07-08T04:16:30;1.73;;;1.43;;
42132;SDS011;70517;48.192;16.278;2023-07-08T04:19:31;2.25;;;1.95;;
42132;SDS011;70517;48.192;16.278;2023-07-08T04:22:31;3.50;;;2.40;;
42132;SDS011;70517;48.192;16.278;2023-07-08T04:25:31;2.90;;;1.97;;
42132;SDS011;70517;48.192;16.278;2023-07-08T04:28:32;2.63;;;2.23;;
42132;SDS011;70517;48.192;16.278;2023-07-08T04:31:32;2.13;;;1.90;;
42132;SDS011;70517;48.192;16.278;2023-07-08T04:34:32;2.90;;;1.93;;
42132;SDS011;70517;48.192;16.278;2023-07-08T04:37:33;2.47;;;1.83;;
42132;SDS011;70517;48.192;16.278;2023-07-08T04:40:33;3.43;;;2.20;;
42132;SDS011;70517;48.192;16.278;2023-07-08T04:43:33;2.57;;;2.33;;
42132;SDS011;70517;48.192;16.278;2023-07-08T04:46:37;2.00;;;1.80;;
42132;SDS011;70517;48.192;16.278;2023-07-08T04:49:38;2.38;;;1.90;;
42132;SDS011;70517;48.192;16.278;2023-07-08T04:52:43;3.33;;;1.77;;
42132;SDS011;70517;48.192;16.278;2023-07-08T04:55:44;1.60;;;1.50;;
42132;SDS011;70517;48.192;16.278;2023-07-08T04:58:46;2.20;;;1.52;;
42132;SDS011;70517;48.192;16.278;2023-07-08T05:01:46;3.10;;;1.63;;
42132;SDS011;70517;48.192;16.278;2023-07-08T05:04:46;2.43;;;1.87;;
42132;SDS011;70517;48.192;16.278;2023-07-08T05:07:46;1.80;;;1.60;;
42132;SDS011;70517;48.192;16.278;2023-07-08T05:10:49;4.40;;;2.15;;
42132;SDS011;70517;48.192;16.278;2023-07-08T05:13:49;1.57;;;1.43;;
42132;SDS011;70517;48.192;16.278;2023-07-08T05:16:50;1.75;;;1.65;;
42132;SDS011;70517;48.192;16.278;2023-07-08T05:19:50;7.77;;;1.90;;
42132;SDS011;70517;48.192;16.278;2023-07-08T05:25:51;2.17;;;1.40;;
42132;SDS011;70517;48.192;16.278;2023-07-08T05:28:51;2.43;;;1.40;;
42132;SDS011;70517;48.192;16.278;2023-07-08T05:34:52;2.10;;;1.35;;
42132;SDS011;70517;48.192;16.278;2023-07-08T05:37:52;1.48;;;1.38;;
42132;SDS011;70517;48.192;16.278;2023-07-08T05:40:57;2.77;;;1.33;;
42132;SDS011;70517;48.192;16.278;2023-07-08T05:43:57;2.40;;;1.65;;
42132;SDS011;70517;48.192;16.278;2023-07-08T05:46:57;2.27;;;2.07;;
42132;SDS011;70517;48.192;16.278;2023-07-08T05:52:58;2.03;;;1.35;;
42132;SDS011;70517;48.192;16.278;2023-07-08T05:58:58;2.72;;;1.42;;
42132;SDS011;70517;48.192;16.278;2023-07-08T06:04:58;3.08;;;1.40;;
42132;SDS011;70517;48.192;16.278;2023-07-08T06:10:59;4.35;;;1.90;;
42132;SDS011;70517;48.192;16.278;2023-07-08T06:16:59;3.45;;;1.67;;
42132;SDS011;70517;48.192;16.278;2023-07-08T06:19:59;2.87;;;1.90;;
42132;SDS011;70517;48.192;16.278;2023-07-08T06:26:00;1.77;;;1.48;;
42132;SDS011;70517;48.192;16.278;2023-07-08T06:29:00;2.50;;;2.13;;
42132;SDS011;70517;48.192;16.278;2023-07-08T06:32:01;2.57;;;2.30;;
42132;SDS011;70517;48.192;16.278;2023-07-08T06:35:02;3.05;;;2.22;;
42132;SDS011;70517;48.192;16.278;2023-07-08T06:38:02;2.47;;;2.05;;
42132;SDS011;70517;48.192;16.278;2023-07-08T06:41:02;3.15;;;2.20;;
42132;SDS011;70517;48.192;16.278;2023-07-08T06:44:03;2.87;;;2.17;;
42132;SDS011;70517;48.192;16.278;2023-07-08T06:47:03;2.30;;;1.98;;
42132;SDS011;70517;48.192;16.278;2023-07-08T06:50:03;2.83;;;2.10;;
42132;SDS011;70517;48.192;16.278;2023-07-08T06:53:04;3.10;;;1.92;;
42132;SDS011;70517;48.192;16.278;2023-07-08T06:56:04;3.07;;;2.60;;
42132;SDS011;70517;48.192;16.278;2023-07-08T06:59:05;2.70;;;2.40;;
42132;SDS011;70517;48.192;16.278;2023-07-08T07:02:05;3.15;;;2.30;;
42132;SDS011;70517;48.192;16.278;2023-07-08T07:05:05;3.65;;;2.28;;
42132;SDS011;70517;48.192;16.278;2023-07-08T07:08:06;3.05;;;2.22;;
42132;SDS011;70517;48.192;16.278;2023-07-08T07:11:07;2.83;;;2.15;;
42132;SDS011;70517;48.192;16.278;2023-07-08T07:14:08;3.13;;;2.17;;
42132;SDS011;70517;48.192;16.278;2023-07-08T07:17:08;5.32;;;2.40;;
42132;SDS011;70517;48.192;16.278;2023-07-08T07:20:09;2.47;;;2.27;;
42132;SDS011;70517;48.192;16.278;2023-07-08T07:23:09;2.53;;;2.25;;
42132;SDS011;70517;48.192;16.278;2023-07-08T07:26:09;3.40;;;2.40;;
42132;SDS011;70517;48.192;16.278;2023-07-08T07:29:09;6.80;;;3.72;;
42132;SDS011;70517;48.192;16.278;2023-07-08T07:32:10;2.30;;;2.10;;
42132;SDS011;70517;48.192;16.278;2023-07-08T07:35:11;3.00;;;1.88;;
42132;SDS011;70517;48.192;16.278;2023-07-08T07:38:15;4.22;;;2.90;;
42132;SDS011;70517;48.192;16.278;2023-07-08T07:41:16;3.60;;;2.50;;
42132;SDS011;70517;48.192;16.278;2023-07-08T07:44:16;2.83;;;2.30;;
42132;SDS011;70517;48.192;16.278;2023-07-08T07:47:16;2.63;;;2.40;;
42132;SDS011;70517;48.192;16.278;2023-07-08T07:50:17;3.07;;;2.60;;
42132;SDS011;70517;48.192;16.278;2023-07-08T07:53:17;2.80;;;2.35;;
42132;SDS011;70517;48.192;16.278;2023-07-08T07:56:17;3.05;;;2.40;;
42132;SDS011;70517;48.192;16.278;2023-07-08T07:59:17;2.97;;;2.13;;
42132;SDS011;70517;48.192;16.278;2023-07-08T08:02:18;2.75;;;2.55;;
42132;SDS011;70517;48.192;16.278;2023-07-08T08:05:18;6.25;;;2.33;;
42132;SDS011;70517;48.192;16.278;2023-07-08T08:08:19;4.07;;;2.38;;
42132;SDS011;70517;48.192;16.278;2023-07-08T08:11:19;3.03;;;2.22;;
42132;SDS011;70517;48.192;16.278;2023-07-08T08:14:21;3.05;;;2.47;;
42132;SDS011;70517;48.192;16.278;2023-07-08T08:17:21;3.45;;;2.55;;
42132;SDS011;70517;48.192;16.278;2023-07-08T08:20:22;4.78;;;3.03;;
42132;SDS011;70517;48.192;16.278;2023-07-08T08:23:23;4.93;;;2.67;;
42132;SDS011;70517;48.192;16.278;2023-07-08T08:26:24;2.80;;;2.50;;
42132;SDS011;70517;48.192;16.278;2023-07-08T08:29:24;3.30;;;2.70;;
42132;SDS011;70517;48.192;16.278;2023-07-08T08:32:24;5.53;;;2.75;;
42132;SDS011;70517;48.192;16.278;2023-07-08T08:35:25;4.70;;;2.63;;
42132;SDS011;70517;48.192;16.278;2023-07-08T08:38:25;7.72;;;2.80;;
42132;SDS011;70517;48.192;16.278;2023-07-08T08:41:30;3.13;;;2.50;;
42132;SDS011;70517;48.192;16.278;2023-07-08T08:44:31;3.58;;;2.88;;
42132;SDS011;70517;48.192;16.278;2023-07-08T08:47:41;3.75;;;2.72;;
42132;SDS011;70517;48.192;16.278;2023-07-08T08:53:45;5.22;;;2.67;;
42132;SDS011;70517;48.192;16.278;2023-07-08T09:00:01;4.90;;;2.65;;
42132;SDS011;70517;48.192;16.278;2023-07-08T09:03:08;2.95;;;2.67;;
42132;SDS011;70517;48.192;16.278;2023-07-08T09:06:10;3.25;;;2.60;;
42132;SDS011;70517;48.192;16.278;2023-07-08T09:09:20;2.35;;;2.15;;
42132;SDS011;70517;48.192;16.278;2023-07-08T09:12:22;3.45;;;2.40;;
42132;SDS011;70517;48.192;16.278;2023-07-08T09:15:25;3.17;;;2.47;;
42132;SDS011;70517;48.192;16.278;2023-07-08T09:18:27;3.13;;;2.60;;
42132;SDS011;70517;48.192;16.278;2023-07-08T09:21:36;5.43;;;2.38;;
42132;SDS011;70517;48.192;16.278;2023-07-08T09:24:45;2.60;;;2.40;;
42132;SDS011;70517;48.192;16.278;2023-07-08T09:27:47;3.22;;;2.42;;
42132;SDS011;70517;48.192;16.278;2023-07-08T09:30:47;2.92;;;2.40;;
42132;SDS011;70517;48.192;16.278;2023-07-08T09:33:50;2.30;;;2.10;;
42132;SDS011;70517;48.192;16.278;2023-07-08T09:36:51;5.75;;;2.50;;
42132;SDS011;70517;48.192;16.278;2023-07-08T09:39:54;5.93;;;2.65;;
42132;SDS011;70517;48.192;16.278;2023-07-08T09:42:58;3.03;;;2.63;;
42132;SDS011;70517;48.192;16.278;2023-07-08T09:46:00;3.47;;;2.80;;
42132;SDS011;70517;48.192;16.278;2023-07-08T09:49:05;2.80;;;2.47;;
42132;SDS011;70517;48.192;16.278;2023-07-08T09:52:11;3.05;;;2.60;;
42132;SDS011;70517;48.192;16.278;2023-07-08T09:55:12;3.97;;;2.35;;
42132;SDS011;70517;48.192;16.278;2023-07-08T09:58:13;3.72;;;2.90;;
42132;SDS011;70517;48.192;16.278;2023-07-08T10:01:20;3.90;;;2.90;;
42132;SDS011;70517;48.192;16.278;2023-07-08T10:04:21;2.65;;;2.45;;
42132;SDS011;70517;48.192;16.278;2023-07-08T10:07:22;2.63;;;2.43;;
42132;SDS011;70517;48.192;16.278;2023-07-08T10:10:24;2.90;;;2.40;;
42132;SDS011;70517;48.192;16.278;2023-07-08T10:13:39;3.08;;;2.58;;
42132;SDS011;70517;48.192;16.278;2023-07-08T10:16:40;3.25;;;2.70;;
42132;SDS011;70517;48.192;16.278;2023-07-08T10:19:40;2.80;;;2.40;;
42132;SDS011;70517;48.192;16.278;2023-07-08T10:22:42;3.38;;;2.63;;
42132;SDS011;70517;48.192;16.278;2023-07-08T10:25:50;2.67;;;2.38;;
42132;SDS011;70517;48.192;16.278;2023-07-08T10:28:58;3.53;;;2.30;;
42132;SDS011;70517;48.192;16.278;2023-07-08T10:35:25;3.20;;;2.40;;
42132;SDS011;70517;48.192;16.278;2023-07-08T10:41:40;2.58;;;2.38;;
42132;SDS011;70517;48.192;16.278;2023-07-08T10:44:45;2.72;;;2.28;;
42132;SDS011;70517;48.192;16.278;2023-07-08T10:47:53;2.22;;;2.03;;
42132;SDS011;70517;48.192;16.278;2023-07-08T10:57:13;2.40;;;2.20;;
42132;SDS011;70517;48.192;16.278;2023-07-08T11:06:40;2.38;;;2.17;;
42132;SDS011;70517;48.192;16.278;2023-07-08T11:09:47;2.42;;;2.15;;
42132;SDS011;70517;48.192;16.278;2023-07-08T11:12:54;3.83;;;2.33;;
42132;SDS011;70517;48.192;16.278;2023-07-08T11:15:57;2.45;;;2.25;;
42132;SDS011;70517;48.192;16.278;2023-07-08T11:19:04;2.33;;;2.13;;
42132;SDS011;70517;48.192;16.278;2023-07-08T11:22:07;2.78;;;2.10;;
42132;SDS011;70517;48.192;16.278;2023-07-08T11:25:10;2.80;;;2.33;;
42132;SDS011;70517;48.192;16.278;2023-07-08T11:28:17;2.55;;;2.35;;
42132;SDS011;70517;48.192;16.278;2023-07-08T11:31:18;3.63;;;2.42;;
42132;SDS011;70517;48.192;16.278;2023-07-08T11:34:19;2.05;;;1.90;;
42132;SDS011;70517;48.192;16.278;2023-07-08T11:37:20;2.78;;;2.30;;
42132;SDS011;70517;48.192;16.278;2023-07-08T11:40:22;2.63;;;2.42;;
42132;SDS011;70517;48.192;16.278;2023-07-08T11:43:24;2.15;;;2.00;;
42132;SDS011;70517;48.192;16.278;2023-07-08T11:46:26;2.78;;;2.10;;
42132;SDS011;70517;48.192;16.278;2023-07-08T11:49:28;2.05;;;1.95;;
42132;SDS011;70517;48.192;16.278;2023-07-08T11:52:29;2.40;;;2.10;;
42132;SDS011;70517;48.192;16.278;2023-07-08T11:55:36;3.70;;;2.22;;
42132;SDS011;70517;48.192;16.278;2023-07-08T11:58:51;2.00;;;1.90;;
42132;SDS011;70517;48.192;16.278;2023-07-08T12:02:01;2.17;;;2.08;;
42132;SDS011;70517;48.192;16.278;2023-07-08T12:05:11;2.53;;;2.33;;
42132;SDS011;70517;48.192;16.278;2023-07-08T12:08:14;2.83;;;2.10;;
42132;SDS011;70517;48.192;16.278;2023-07-08T12:11:15;2.28;;;2.08;;
42132;SDS011;70517;48.192;16.278;2023-07-08T12:14:15;2.40;;;2.20;;
42132;SDS011;70517;48.192;16.278;2023-07-08T12:17:16;2.25;;;2.10;;
42132;SDS011;70517;48.192;16.278;2023-07-08T12:20:23;2.40;;;2.20;;
42132;SDS011;70517;48.192;16.278;2023-07-08T12:23:25;2.53;;;2.20;;
42132;SDS011;70517;48.192;16.278;2023-07-08T12:26:26;2.55;;;2.15;;
42132;SDS011;70517;48.192;16.278;2023-07-08T12:29:26;2.63;;;2.43;;
42132;SDS011;70517;48.192;16.278;2023-07-08T12:32:26;2.30;;;2.10;;
42132;SDS011;70517;48.192;16.278;2023-07-08T12:35:29;3.17;;;2.35;;
42132;SDS011;70517;48.192;16.278;2023-07-08T12:38:43;2.88;;;2.30;;
42132;SDS011;70517;48.192;16.278;2023-07-08T12:41:46;3.55;;;2.13;;
42132;SDS011;70517;48.192;16.278;2023-07-08T12:44:47;2.60;;;2.40;;
42132;SDS011;70517;48.192;16.278;2023-07-08T12:47:48;2.42;;;2.15;;
42132;SDS011;70517;48.192;16.278;2023-07-08T12:50:49;2.35;;;2.15;;
42132;SDS011;70517;48.192;16.278;2023-07-08T12:53:50;2.72;;;2.53;;
42132;SDS011;70517;48.192;16.278;2023-07-08T12:56:51;3.05;;;2.72;;
42132;SDS011;70517;48.192;16.278;2023-07-08T12:59:51;2.88;;;2.67;;
42132;SDS011;70517;48.192;16.278;2023-07-08T13:02:55;3.13;;;2.50;;
42132;SDS011;70517;48.192;16.278;2023-07-08T13:05:57;4.60;;;2.53;;
42132;SDS011;70517;48.192;16.278;2023-07-08T13:09:00;2.70;;;2.50;;
42132;SDS011;70517;48.192;16.278;2023-07-08T13:12:18;2.45;;;2.25;;
42132;SDS011;70517;48.192;16.278;2023-07-08T13:15:29;2.70;;;2.50;;
42132;SDS011;70517;48.192;16.278;2023-07-08T13:18:34;2.55;;;2.35;;
42132;SDS011;70517;48.192;16.278;2023-07-08T13:21:35;2.58;;;2.47;;
42132;SDS011;70517;48.192;16.278;2023-07-08T13:24:36;2.90;;;2.60;;
42132;SDS011;70517;48.192;16.278;2023-07-08T13:27:38;2.55;;;2.30;;
42132;SDS011;70517;48.192;16.278;2023-07-08T13:30:38;2.50;;;2.30;;
42132;SDS011;70517;48.192;16.278;2023-07-08T13:33:38;3.47;;;2.77;;
42132;SDS011;70517;48.192;16.278;2023-07-08T13:36:39;2.60;;;2.40;;
42132;SDS011;70517;48.192;16.278;2023-07-08T13:39:43;3.67;;;2.33;;
42132;SDS011;70517;48.192;16.278;2023-07-08T13:42:47;2.33;;;2.22;;
42132;SDS011;70517;48.192;16.278;2023-07-08T13:45:48;3.13;;;2.53;;
42132;SDS011;70517;48.192;16.278;2023-07-08T13:48:48;3.00;;;2.80;;
42132;SDS011;70517;48.192;16.278;2023-07-08T13:51:48;2.83;;;2.63;;
42132;SDS011;70517;48.192;16.278;2023-07-08T13:54:57;3.40;;;3.10;;
42132;SDS011;70517;48.192;16.278;2023-07-08T13:58:00;3.10;;;2.90;;
42132;SDS011;70517;48.192;16.278;2023-07-08T14:01:01;2.58;;;2.38;;
42132;SDS011;70517;48.192;16.278;2023-07-08T14:04:01;3.77;;;3.47;;
42132;SDS011;70517;48.192;16.278;2023-07-08T14:07:02;2.97;;;2.78;;
42132;SDS011;70517;48.192;16.278;2023-07-08T14:10:12;3.22;;;3.03;;
42132;SDS011;70517;48.192;16.278;2023-07-08T14:13:12;2.92;;;2.72;;
42132;SDS011;70517;48.192;16.278;2023-07-08T14:16:22;2.77;;;2.57;;
42132;SDS011;70517;48.192;16.278;2023-07-08T14:19:25;2.50;;;2.30;;
42132;SDS011;70517;48.192;16.278;2023-07-08T14:22:27;2.78;;;2.58;;
42132;SDS011;70517;48.192;16.278;2023-07-08T14:25:28;2.80;;;2.60;;
42132;SDS011;70517;48.192;16.278;2023-07-08T14:28:28;3.10;;;2.80;;
42132;SDS011;70517;48.192;16.278;2023-07-08T14:31:28;2.53;;;2.43;;
42132;SDS011;70517;48.192;16.278;2023-07-08T14:34:29;2.83;;;2.40;;
42132;SDS011;70517;48.192;16.278;2023-07-08T14:37:29;2.50;;;2.08;;
42132;SDS011;70517;48.192;16.278;2023-07-08T14:40:33;4.05;;;2.30;;
42132;SDS011;70517;48.192;16.278;2023-07-08T14:43:34;3.63;;;2.40;;
42132;SDS011;70517;48.192;16.278;2023-07-08T14:46:35;2.70;;;2.50;;
42132;SDS011;70517;48.192;16.278;2023-07-08T14:49:35;3.23;;;2.27;;
42132;SDS011;70517;48.192;16.278;2023-07-08T14:52:35;3.10;;;2.57;;
42132;SDS011;70517;48.192;16.278;2023-07-08T14:55:35;1.90;;;1.80;;
42132;SDS011;70517;48.192;16.278;2023-07-08T14:58:37;2.10;;;2.00;;
42132;SDS011;70517;48.192;16.278;2023-07-08T15:01:39;2.33;;;2.13;;
42132;SDS011;70517;48.192;16.278;2023-07-08T15:04:39;2.25;;;2.05;;
42132;SDS011;70517;48.192;16.278;2023-07-08T15:07:39;2.10;;;2.00;;
42132;SDS011;70517;48.192;16.278;2023-07-08T15:10:42;2.10;;;2.00;;
42132;SDS011;70517;48.192;16.278;2023-07-08T15:13:44;2.50;;;2.00;;
42132;SDS011;70517;48.192;16.278;2023-07-08T15:16:45;2.30;;;2.10;;
42132;SDS011;70517;48.192;16.278;2023-07-08T15:19:45;3.40;;;2.20;;
42132;SDS011;70517;48.192;16.278;2023-07-08T15:22:46;2.37;;;1.93;;
42132;SDS011;70517;48.192;16.278;2023-07-08T15:25:46;2.40;;;2.20;;
42132;SDS011;70517;48.192;16.278;2023-07-08T15:28:48;2.17;;;2.08;;
42132;SDS011;70517;48.192;16.278;2023-07-08T15:31:49;2.40;;;2.20;;
42132;SDS011;70517;48.192;16.278;2023-07-08T15:34:49;2.43;;;2.20;;
42132;SDS011;70517;48.192;16.278;2023-07-08T15:37:49;2.07;;;1.90;;
42132;SDS011;70517;48.192;16.278;2023-07-08T15:40:49;1.80;;;1.70;;
42132;SDS011;70517;48.192;16.278;2023-07-08T15:43:52;3.17;;;2.03;;
42132;SDS011;70517;48.192;16.278;2023-07-08T15:46:52;1.92;;;1.63;;
42132;SDS011;70517;48.192;16.278;2023-07-08T15:49:53;2.37;;;1.70;;
42132;SDS011;70517;48.192;16.278;2023-07-08T15:52:53;2.57;;;1.83;;
42132;SDS011;70517;48.192;16.278;2023-07-08T15:55:54;2.30;;;1.83;;
42132;SDS011;70517;48.192;16.278;2023-07-08T15:58:54;2.20;;;2.00;;
42132;SDS011;70517;48.192;16.278;2023-07-08T16:01:54;1.83;;;1.70;;
42132;SDS011;70517;48.192;16.278;2023-07-08T16:04:56;2.10;;;1.90;;
42132;SDS011;70517;48.192;16.278;2023-07-08T16:07:57;1.77;;;1.67;;
42132;SDS011;70517;48.192;16.278;2023-07-08T16:10:57;2.27;;;2.07;;
42132;SDS011;70517;48.192;16.278;2023-07-08T16:13:58;3.15;;;1.90;;
42132;SDS011;70517;48.192;16.278;2023-07-08T16:16:58;3.00;;;1.83;;
42132;SDS011;70517;48.192;16.278;2023-07-08T16:19:59;1.77;;;1.67;;
42132;SDS011;70517;48.192;16.278;2023-07-08T16:22:59;2.60;;;1.97;;
42132;SDS011;70517;48.192;16.278;2023-07-08T16:26:00;3.35;;;2.25;;
42132;SDS011;70517;48.192;16.278;2023-07-08T16:29:01;2.10;;;1.88;;
42132;SDS011;70517;48.192;16.278;2023-07-08T16:32:02;3.35;;;2.00;;
42132;SDS011;70517;48.192;16.278;2023-07-08T16:35:02;2.75;;;1.80;;
42132;SDS011;70517;48.192;16.278;2023-07-08T16:38:02;5.40;;;1.97;;
42132;SDS011;70517;48.192;16.278;2023-07-08T16:41:02;3.93;;;2.30;;
42132;SDS011;70517;48.192;16.278;2023-07-08T16:44:07;2.03;;;1.90;;
42132;SDS011;70517;48.192;16.278;2023-07-08T16:47:09;2.55;;;2.03;;
42132;SDS011;70517;48.192;16.278;2023-07-08T16:50:10;2.75;;;2.20;;
42132;SDS011;70517;48.192;16.278;2023-07-08T16:53:10;2.25;;;2.00;;
42132;SDS011;70517;48.192;16.278;2023-07-08T16:56:11;2.20;;;2.00;;
42132;SDS011;70517;48.192;16.278;2023-07-08T16:59:12;2.90;;;2.03;;
42132;SDS011;70517;48.192;16.278;2023-07-08T17:02:13;2.70;;;2.20;;
42132;SDS011;70517;48.192;16.278;2023-07-08T17:05:22;6.07;;;1.90;;
42132;SDS011;70517;48.192;16.278;2023-07-08T17:08:23;5.68;;;2.10;;
42132;SDS011;70517;48.192;16.278;2023-07-08T17:11:23;1.73;;;1.63;;
42132;SDS011;70517;48.192;16.278;2023-07-08T17:14:23;3.50;;;1.80;;
42132;SDS011;70517;48.192;16.278;2023-07-08T17:17:23;2.20;;;1.87;;
42132;SDS011;70517;48.192;16.278;2023-07-08T17:20:34;2.13;;;1.80;;
42132;SDS011;70517;48.192;16.278;2023-07-08T17:23:34;1.70;;;1.55;;
42132;SDS011;70517;48.192;16.278;2023-07-08T17:26:36;2.20;;;2.00;;
42132;SDS011;70517;48.192;16.278;2023-07-08T17:29:37;2.17;;;1.98;;
42132;SDS011;70517;48.192;16.278;2023-07-08T17:32:37;5.70;;;1.87;;
42132;SDS011;70517;48.192;16.278;2023-07-08T17:35:37;3.28;;;1.95;;
42132;SDS011;70517;48.192;16.278;2023-07-08T17:41:38;2.50;;;1.90;;
42132;SDS011;70517;48.192;16.278;2023-07-08T17:44:39;2.72;;;1.65;;
42132;SDS011;70517;48.192;16.278;2023-07-08T17:47:40;2.22;;;2.00;;
42132;SDS011;70517;48.192;16.278;2023-07-08T17:50:40;3.05;;;1.90;;
42132;SDS011;70517;48.192;16.278;2023-07-08T17:53:41;1.70;;;1.60;;
42132;SDS011;70517;48.192;16.278;2023-07-08T17:56:42;1.93;;;1.40;;
42132;SDS011;70517;48.192;16.278;2023-07-08T17:59:43;3.08;;;1.52;;
42132;SDS011;70517;48.192;16.278;2023-07-08T18:02:43;2.03;;;1.83;;
42132;SDS011;70517;48.192;16.278;2023-07-08T18:05:44;1.98;;;1.80;;
42132;SDS011;70517;48.192;16.278;2023-07-08T18:08:44;1.93;;;1.70;;
42132;SDS011;70517;48.192;16.278;2023-07-08T18:11:45;3.10;;;2.10;;
42132;SDS011;70517;48.192;16.278;2023-07-08T18:14:45;3.25;;;1.90;;
42132;SDS011;70517;48.192;16.278;2023-07-08T18:17:48;2.17;;;1.63;;
42132;SDS011;70517;48.192;16.278;2023-07-08T18:20:50;2.10;;;1.70;;
42132;SDS011;70517;48.192;16.278;2023-07-08T18:23:51;1.75;;;1.63;;
42132;SDS011;70517;48.192;16.278;2023-07-08T18:26:51;3.10;;;1.90;;
42132;SDS011;70517;48.192;16.278;2023-07-08T18:29:52;4.20;;;1.83;;
42132;SDS011;70517;48.192;16.278;2023-07-08T18:32:52;2.57;;;1.60;;
42132;SDS011;70517;48.192;16.278;2023-07-08T18:35:53;3.75;;;1.90;;
42132;SDS011;70517;48.192;16.278;2023-07-08T18:38:53;2.80;;;1.87;;
42132;SDS011;70517;48.192;16.278;2023-07-08T18:41:54;2.22;;;1.83;;
42132;SDS011;70517;48.192;16.278;2023-07-08T18:44:55;3.22;;;1.92;;
42132;SDS011;70517;48.192;16.278;2023-07-08T18:47:55;2.60;;;2.07;;
42132;SDS011;70517;48.192;16.278;2023-07-08T18:50:55;2.33;;;2.13;;